Amsterdam, NY (12010)

7:56 AM EST on February 09, 2016 (GMT -0500)
East End @ Kirk Douglas House | | Change Station
CLOSE
Current Station
Personal Weather Station
Location: Amsterdam, NY
Elevation: 276 ft
Nearby Weather Stations

Elev 276 ft 42.93 °N, 74.18 °W | Updated 6 seconds ago

Overcast
Overcast
23.9 °F
Feels Like 24 °F
N
2.0
Wind Variable Wind from SE
Gusts 4.0 mph

Today
High -- | Low -- °F
--% Chance of Precip.
Yesterday
High -- | Low -- °F
Precip. -- in
Pressure 29.68 in
Visibility 7.0 miles
Clouds Few 800 ft
Mostly Cloudy 5000 ft
Overcast 7500 ft
Windchill 24 °F
Dew Point 21 °F
Humidity 88%
Rainfall 0.00 in
Snow Depth Not available.
7:02 AM 5:19 PM
New Moon, 1% visible
METAR KALB 091251Z 00000KT 7SM -SN FEW008 BKN050 OVC075 M04/M07 A2967 RMK AO2 SLP051 PCPN VRY LGT P0000 T10441067 $
Pressure 29.68 in
Visibility 7.0 miles
Clouds Few 800 ft
Mostly Cloudy 5000 ft
Overcast 7500 ft
Windchill 24 °F
Dew Point 21 °F
Humidity 88%
Rainfall 0.00 in
Snow Depth Not available.
7:02 AM 5:19 PM
New Moon, 1% visible
METAR KALB 091251Z 00000KT 7SM -SN FEW008 BKN050 OVC075 M04/M07 A2967 RMK AO2 SLP051 PCPN VRY LGT P0000 T10441067 $

10-Day Weather Forecast

Almanac

Astronomy

Feb. 09, 2016 Rise Set
Actual Time
Civil Twilight
Nautical Twilight
Astronomical Twilight
Moon
Length of Visible Light
Length of Day
Tomorrow will be .
, % of the Moon is Illuminated

Today's Extremes

State Highs State Lows

Community

WunderPhotos

Upload Photos

1,891,589 photos uploaded!

WunderBlog® & News

Nearby

Air Quality

  Air Quality AQ Index Pollutant
Not available.

Snow Depth

Station Depth Elevation

Earthquake Activity

City Distance Mag. Time & Date
Minimum magnitude displayed is 2.5.

Coastal Water Temperatures

Place Temperature

Stations

Nearby Weather Stations

Station Location Temp. Windchill Dew Point Humidity Wind Precip. Elev Updated Type
                   

Watches & Warnings

There are currently no watches in effect.